Time;durP1;ratioP1;P1;durP2;ratioP2;P2;SDS_P1;SDS_P2;PMS_P1;PMS_P2;Temp;Humidity;BMP_temperature;BMP_pressure;BME280_temperature;BME280_humidity;BME280_pressure;Samples;Min_cycle;Max_cycle;Signal;HPM_P1;HPM_P2
2024/02/23 00:04:28;;;;;;;;;52.25;43.75;;;;;;;;6488952;39;9008;-52
2024/02/23 00:10:31;;;;;;;;;54.25;44.25;;;;;;;;6488581;39;8892;-54
2024/02/23 00:16:40;;;;;;;;;50.25;42.00;;;;;;;;6490143;39;9685;-53
2024/02/23 00:22:43;;;;;;;;;41.25;40.00;;;;;;;;6489497;46;8853;-54
2024/02/23 00:28:47;;;;;;;;;47.00;39.25;;;;;;;;6489484;39;8956;-51
2024/02/23 00:34:52;;;;;;;;;40.75;38.00;;;;;;;;6488799;39;9024;-52
2024/02/23 00:40:54;;;;;;;;;49.25;41.50;;;;;;;;6488124;31;8901;-54
2024/02/23 00:47:00;;;;;;;;;45.75;41.00;;;;;;;;6490529;31;8885;-53
2024/02/23 00:53:03;;;;;;;;;49.25;43.00;;;;;;;;6488472;39;8924;-55
2024/02/23 00:59:07;;;;;;;;;54.00;43.75;;;;;;;;6488486;31;9008;-52
2024/02/23 01:05:10;;;;;;;;;57.50;46.75;;;;;;;;6488426;46;8929;-51
2024/02/23 01:11:12;;;;;;;;;56.00;45.75;;;;;;;;6488602;39;9594;-56
2024/02/23 01:17:15;;;;;;;;;46.00;41.25;;;;;;;;6489025;46;8885;-50
2024/02/23 01:23:18;;;;;;;;;53.75;42.50;;;;;;;;6488278;39;9058;-52
2024/02/23 01:29:22;;;;;;;;;56.75;45.00;;;;;;;;6488039;39;8877;-53
2024/02/23 01:35:24;;;;;;;;;48.00;40.25;;;;;;;;6488735;39;8908;-56
2024/02/23 01:41:28;;;;;;;;;51.50;42.25;;;;;;;;6488797;31;8888;-52
2024/02/23 01:47:30;;;;;;;;;52.75;44.50;;;;;;;;6488429;46;8888;-55
2024/02/23 01:53:34;;;;;;;;;55.00;48.00;;;;;;;;6487476;39;8959;-53
2024/02/23 01:59:39;;;;;;;;;47.75;42.00;;;;;;;;6488512;39;8967;-50
2024/02/23 02:05:42;;;;;;;;;55.25;46.50;;;;;;;;6487976;46;9036;-52
2024/02/23 02:11:48;;;;;;;;;54.00;44.25;;;;;;;;6488295;39;8885;-55
2024/02/23 02:17:54;;;;;;;;;51.00;44.00;;;;;;;;6489988;31;8935;-53
2024/02/23 02:23:57;;;;;;;;;48.75;41.75;;;;;;;;6488503;39;8877;-52
2024/02/23 02:30:01;;;;;;;;;51.50;43.00;;;;;;;;6489043;31;8923;-51
2024/02/23 02:36:04;;;;;;;;;62.00;51.25;;;;;;;;6488149;39;9541;-54
2024/02/23 02:42:06;;;;;;;;;65.50;52.50;;;;;;;;6487978;39;8861;-54
2024/02/23 02:48:08;;;;;;;;;67.25;53.50;;;;;;;;6486961;47;8893;-54
2024/02/23 02:54:12;;;;;;;;;70.50;55.75;;;;;;;;6488704;31;9477;-52
2024/02/23 03:00:14;;;;;;;;;67.33;55.00;;;;;;;;6487891;39;9028;-52
2024/02/23 03:06:18;;;;;;;;;68.00;56.00;;;;;;;;6489072;39;8991;-50
2024/02/23 03:12:20;;;;;;;;;76.25;61.75;;;;;;;;6487952;47;8877;-53
2024/02/23 03:18:24;;;;;;;;;75.00;61.50;;;;;;;;6489264;39;8889;-53
2024/02/23 03:24:27;;;;;;;;;73.25;60.00;;;;;;;;6488704;39;9121;-51
2024/02/23 03:30:29;;;;;;;;;81.50;64.75;;;;;;;;6488963;46;8924;-49
2024/02/23 03:36:36;;;;;;;;;87.00;67.33;;;;;;;;6490225;39;8955;-52
2024/02/23 03:42:38;;;;;;;;;79.25;65.00;;;;;;;;6489632;46;8905;-55
2024/02/23 03:48:44;;;;;;;;;87.25;68.50;;;;;;;;6490625;39;8908;-52
2024/02/23 03:54:46;;;;;;;;;89.67;69.67;;;;;;;;6489945;39;9136;-52
2024/02/23 04:00:49;;;;;;;;;85.33;65.67;;;;;;;;6489390;46;8925;-48
2024/02/23 04:06:51;;;;;;;;;84.67;65.67;;;;;;;;6490371;39;9529;-53
2024/02/23 04:12:54;;;;;;;;;90.00;68.33;;;;;;;;6489938;39;8969;-49
2024/02/23 04:18:56;;;;;;;;;85.33;67.33;;;;;;;;6489477;39;9008;-50
2024/02/23 04:24:59;;;;;;;;;85.50;67.75;;;;;;;;6490822;39;8885;-53
2024/02/23 04:31:01;;;;;;;;;85.75;68.50;;;;;;;;6489735;46;8913;-55
2024/02/23 04:37:03;;;;;;;;;85.50;66.25;;;;;;;;6490268;39;8873;-52
2024/02/23 04:43:05;;;;;;;;;81.25;64.75;;;;;;;;6489437;39;8897;-54
2024/02/23 04:49:07;;;;;;;;;87.50;70.50;;;;;;;;6489930;46;8956;-54
2024/02/23 04:55:09;;;;;;;;;80.75;64.00;;;;;;;;6490009;39;9008;-55
2024/02/23 05:07:39;;;;;;;;;75.00;59.25;;;;;;;;6491866;39;8969;-54
2024/02/23 05:13:41;;;;;;;;;72.50;59.50;;;;;;;;6491855;39;8859;-53
2024/02/23 05:19:43;;;;;;;;;75.00;60.00;;;;;;;;6493583;39;9031;-49
